Terminal Aerodrome Forecast
Issued by NWS

Home | Current Version | Previous Version | Text Only | Print | Product List | Glossary On
Versions: 1 2 3 4 5 6 7 8 9 10 11 12 13 14 15 16 17 18 19 20 21 22 23 24 25 26 27
000
FTUS45 KGJT 240046 AAA
TAFEGE
TAF AMD
KEGE 240046Z 2401/2424 26015G25KT P6SM FEW120 SCT150
     FM240200 17008KT P6SM SCT250
     FM240500 00000KT P6SM FEW250
     FM241900 25009KT P6SM SCT250
      AMD LTD TO CLD VIS AND WIND 2401/2413=

USA.gov is the U.S. government's official web portal to all federal, state and local government web resources and services.